sensor_id;sensor_type;location;lat;lon;timestamp;pressure;altitude;pressure_sealevel;temperature;humidity
14273;BME280;7220;49.450;11.052;2023-02-22T00:02:33;98175.69;;;7.49;100.00
14273;BME280;7220;49.450;11.052;2023-02-22T00:06:36;98174.13;;;7.45;100.00
14273;BME280;7220;49.450;11.052;2023-02-22T00:10:37;98172.13;;;7.50;100.00
14273;BME280;7220;49.450;11.052;2023-02-22T00:14:37;98158.38;;;7.41;100.00
14273;BME280;7220;49.450;11.052;2023-02-22T00:18:39;98171.41;;;7.24;100.00
14273;BME280;7220;49.450;11.052;2023-02-22T00:22:41;98154.59;;;7.04;100.00
14273;BME280;7220;49.450;11.052;2023-02-22T00:26:41;98159.19;;;7.21;100.00
14273;BME280;7220;49.450;11.052;2023-02-22T00:30:42;98147.44;;;7.06;100.00
14273;BME280;7220;49.450;11.052;2023-02-22T00:34:42;98142.31;;;7.03;100.00
14273;BME280;7220;49.450;11.052;2023-02-22T00:38:42;98157.03;;;6.87;100.00
14273;BME280;7220;49.450;11.052;2023-02-22T00:42:43;98146.59;;;6.84;100.00
14273;BME280;7220;49.450;11.052;2023-02-22T00:46:45;98142.47;;;6.76;100.00
14273;BME280;7220;49.450;11.052;2023-02-22T00:50:45;98145.22;;;6.73;100.00
14273;BME280;7220;49.450;11.052;2023-02-22T00:54:47;98147.09;;;6.71;100.00
14273;BME280;7220;49.450;11.052;2023-02-22T00:58:48;98145.00;;;6.79;100.00
14273;BME280;7220;49.450;11.052;2023-02-22T01:02:48;98141.09;;;6.66;100.00
14273;BME280;7220;49.450;11.052;2023-02-22T01:06:49;98142.53;;;6.75;100.00
14273;BME280;7220;49.450;11.052;2023-02-22T01:10:50;98149.41;;;6.79;100.00
14273;BME280;7220;49.450;11.052;2023-02-22T01:14:51;98143.44;;;6.74;100.00
14273;BME280;7220;49.450;11.052;2023-02-22T01:18:55;98141.66;;;6.74;100.00
14273;BME280;7220;49.450;11.052;2023-02-22T01:22:57;98132.16;;;6.70;100.00
14273;BME280;7220;49.450;11.052;2023-02-22T01:26:58;98126.06;;;6.68;100.00
14273;BME280;7220;49.450;11.052;2023-02-22T01:30:58;98133.44;;;6.36;100.00
14273;BME280;7220;49.450;11.052;2023-02-22T01:35:00;98128.72;;;6.44;100.00
14273;BME280;7220;49.450;11.052;2023-02-22T01:39:04;98126.16;;;6.43;100.00
14273;BME280;7220;49.450;11.052;2023-02-22T01:47:20;98116.00;;;6.08;100.00
14273;BME280;7220;49.450;11.052;2023-02-22T01:51:23;98117.09;;;6.03;100.00
14273;BME280;7220;49.450;11.052;2023-02-22T01:55:24;98115.63;;;6.18;100.00
14273;BME280;7220;49.450;11.052;2023-02-22T01:59:27;98109.91;;;6.30;100.00
14273;BME280;7220;49.450;11.052;2023-02-22T02:03:32;98116.19;;;6.04;100.00
14273;BME280;7220;49.450;11.052;2023-02-22T02:07:35;98105.31;;;6.11;100.00
14273;BME280;7220;49.450;11.052;2023-02-22T02:11:37;98102.25;;;6.00;100.00
14273;BME280;7220;49.450;11.052;2023-02-22T02:15:39;98093.47;;;5.98;100.00
14273;BME280;7220;49.450;11.052;2023-02-22T02:24:36;98088.59;;;5.87;100.00
14273;BME280;7220;49.450;11.052;2023-02-22T02:28:52;98090.50;;;5.83;100.00
14273;BME280;7220;49.450;11.052;2023-02-22T02:33:16;98082.06;;;5.99;100.00
14273;BME280;7220;49.450;11.052;2023-02-22T02:37:32;98088.88;;;5.79;100.00
14273;BME280;7220;49.450;11.052;2023-02-22T02:41:41;98080.34;;;5.96;100.00
14273;BME280;7220;49.450;11.052;2023-02-22T02:46:00;98095.19;;;5.75;100.00
14273;BME280;7220;49.450;11.052;2023-02-22T02:50:08;98083.38;;;5.85;100.00
14273;BME280;7220;49.450;11.052;2023-02-22T02:54:10;98087.47;;;5.69;100.00
14273;BME280;7220;49.450;11.052;2023-02-22T02:58:18;98079.31;;;5.51;100.00
14273;BME280;7220;49.450;11.052;2023-02-22T03:02:48;98075.81;;;5.76;100.00
14273;BME280;7220;49.450;11.052;2023-02-22T03:11:13;98072.47;;;5.71;100.00
14273;BME280;7220;49.450;11.052;2023-02-22T03:24:02;98057.94;;;5.84;100.00
14273;BME280;7220;49.450;11.052;2023-02-22T03:28:08;98066.59;;;5.63;100.00
14273;BME280;7220;49.450;11.052;2023-02-22T03:32:16;98059.47;;;5.41;100.00
14273;BME280;7220;49.450;11.052;2023-02-22T03:36:21;98053.75;;;5.53;100.00
14273;BME280;7220;49.450;11.052;2023-02-22T03:40:30;98056.34;;;5.55;100.00
14273;BME280;7220;49.450;11.052;2023-02-22T03:44:33;98053.53;;;5.34;100.00
14273;BME280;7220;49.450;11.052;2023-02-22T03:48:48;98047.69;;;5.51;100.00
14273;BME280;7220;49.450;11.052;2023-02-22T03:52:49;98046.06;;;5.22;100.00
14273;BME280;7220;49.450;11.052;2023-02-22T03:56:56;98045.09;;;5.25;100.00
14273;BME280;7220;49.450;11.052;2023-02-22T04:00:57;98048.56;;;5.27;100.00
14273;BME280;7220;49.450;11.052;2023-02-22T04:04:58;98045.69;;;5.33;100.00
14273;BME280;7220;49.450;11.052;2023-02-22T04:08:58;98053.59;;;5.33;100.00
14273;BME280;7220;49.450;11.052;2023-02-22T04:12:59;98046.44;;;5.36;100.00
14273;BME280;7220;49.450;11.052;2023-02-22T04:16:59;98053.16;;;5.45;100.00
14273;BME280;7220;49.450;11.052;2023-02-22T04:20:59;98056.81;;;5.41;100.00
14273;BME280;7220;49.450;11.052;2023-02-22T04:25:00;98051.88;;;5.32;100.00
14273;BME280;7220;49.450;11.052;2023-02-22T04:29:00;98053.66;;;5.31;100.00
14273;BME280;7220;49.450;11.052;2023-02-22T04:33:00;98043.13;;;5.31;100.00
14273;BME280;7220;49.450;11.052;2023-02-22T04:37:00;98045.09;;;5.25;100.00
14273;BME280;7220;49.450;11.052;2023-02-22T04:41:01;98038.69;;;5.32;100.00
14273;BME280;7220;49.450;11.052;2023-02-22T04:45:02;98039.00;;;5.22;100.00
14273;BME280;7220;49.450;11.052;2023-02-22T04:49:03;98033.34;;;5.35;100.00
14273;BME280;7220;49.450;11.052;2023-02-22T04:53:03;98035.31;;;5.28;100.00
14273;BME280;7220;49.450;11.052;2023-02-22T04:57:04;98034.34;;;5.31;100.00
14273;BME280;7220;49.450;11.052;2023-02-22T05:01:04;98025.28;;;5.40;100.00
14273;BME280;7220;49.450;11.052;2023-02-22T05:05:05;98023.13;;;5.26;100.00
14273;BME280;7220;49.450;11.052;2023-02-22T05:09:05;98027.41;;;5.03;100.00
14273;BME280;7220;49.450;11.052;2023-02-22T05:13:06;98022.94;;;5.30;100.00
14273;BME280;7220;49.450;11.052;2023-02-22T05:17:06;98026.06;;;5.16;100.00
14273;BME280;7220;49.450;11.052;2023-02-22T05:21:06;98020.25;;;5.07;100.00
14273;BME280;7220;49.450;11.052;2023-02-22T05:25:07;98018.53;;;5.05;100.00
14273;BME280;7220;49.450;11.052;2023-02-22T05:29:07;98015.91;;;5.05;100.00
14273;BME280;7220;49.450;11.052;2023-02-22T05:33:08;98008.97;;;5.03;100.00
14273;BME280;7220;49.450;11.052;2023-02-22T05:37:08;98000.84;;;5.09;100.00
14273;BME280;7220;49.450;11.052;2023-02-22T05:41:10;98001.84;;;5.05;100.00
14273;BME280;7220;49.450;11.052;2023-02-22T05:45:12;98013.97;;;5.11;100.00
14273;BME280;7220;49.450;11.052;2023-02-22T05:49:13;98002.66;;;5.07;100.00
14273;BME280;7220;49.450;11.052;2023-02-22T05:53:13;98002.78;;;5.04;100.00
14273;BME280;7220;49.450;11.052;2023-02-22T05:57:13;98011.63;;;5.01;100.00
14273;BME280;7220;49.450;11.052;2023-02-22T06:01:14;98001.91;;;5.03;100.00
14273;BME280;7220;49.450;11.052;2023-02-22T06:05:14;98005.69;;;4.96;100.00
14273;BME280;7220;49.450;11.052;2023-02-22T06:09:14;98009.28;;;4.94;100.00
14273;BME280;7220;49.450;11.052;2023-02-22T06:13:15;98014.25;;;5.03;100.00
14273;BME280;7220;49.450;11.052;2023-02-22T06:17:15;98012.66;;;4.97;100.00
14273;BME280;7220;49.450;11.052;2023-02-22T06:21:16;98012.19;;;5.11;100.00
14273;BME280;7220;49.450;11.052;2023-02-22T06:25:19;98012.38;;;5.05;100.00
14273;BME280;7220;49.450;11.052;2023-02-22T06:29:20;98025.56;;;5.05;100.00
14273;BME280;7220;49.450;11.052;2023-02-22T06:33:20;98027.09;;;4.85;100.00
14273;BME280;7220;49.450;11.052;2023-02-22T06:37:20;98025.31;;;5.13;100.00
14273;BME280;7220;49.450;11.052;2023-02-22T06:41:21;98024.94;;;5.24;100.00
14273;BME280;7220;49.450;11.052;2023-02-22T06:45:21;98034.50;;;5.01;100.00
14273;BME280;7220;49.450;11.052;2023-02-22T06:49:21;98043.59;;;4.90;100.00
14273;BME280;7220;49.450;11.052;2023-02-22T06:53:22;98028.91;;;4.83;100.00
14273;BME280;7220;49.450;11.052;2023-02-22T06:57:22;98027.94;;;4.86;100.00
14273;BME280;7220;49.450;11.052;2023-02-22T07:01:22;98027.81;;;4.90;100.00
14273;BME280;7220;49.450;11.052;2023-02-22T07:05:24;98022.63;;;5.14;100.00
14273;BME280;7220;49.450;11.052;2023-02-22T07:09:25;98024.13;;;5.21;100.00
14273;BME280;7220;49.450;11.052;2023-02-22T07:13:25;98023.59;;;5.12;100.00
14273;BME280;7220;49.450;11.052;2023-02-22T07:17:25;98030.66;;;5.10;100.00
14273;BME280;7220;49.450;11.052;2023-02-22T07:21:27;98022.28;;;5.24;100.00
14273;BME280;7220;49.450;11.052;2023-02-22T07:25:28;98019.59;;;5.25;100.00
14273;BME280;7220;49.450;11.052;2023-02-22T07:29:28;98026.50;;;5.29;100.00
14273;BME280;7220;49.450;11.052;2023-02-22T07:33:29;98011.97;;;5.43;100.00
14273;BME280;7220;49.450;11.052;2023-02-22T07:37:29;98016.91;;;5.52;100.00
14273;BME280;7220;49.450;11.052;2023-02-22T07:41:29;98001.75;;;5.59;100.00
14273;BME280;7220;49.450;11.052;2023-02-22T07:45:32;98015.84;;;5.58;100.00
14273;BME280;7220;49.450;11.052;2023-02-22T07:49:32;98021.28;;;5.77;100.00
14273;BME280;7220;49.450;11.052;2023-02-22T07:53:33;98013.88;;;5.63;100.00
14273;BME280;7220;49.450;11.052;2023-02-22T07:57:33;98014.34;;;5.74;100.00
14273;BME280;7220;49.450;11.052;2023-02-22T08:01:33;98007.44;;;5.94;100.00
14273;BME280;7220;49.450;11.052;2023-02-22T08:05:35;98009.97;;;5.97;100.00
14273;BME280;7220;49.450;11.052;2023-02-22T08:09:35;98005.94;;;6.12;100.00
14273;BME280;7220;49.450;11.052;2023-02-22T08:13:37;97997.97;;;6.13;100.00
14273;BME280;7220;49.450;11.052;2023-02-22T08:17:38;98006.53;;;6.19;100.00
14273;BME280;7220;49.450;11.052;2023-02-22T08:21:38;98003.84;;;6.42;100.00
14273;BME280;7220;49.450;11.052;2023-02-22T08:25:38;97999.81;;;6.56;100.00
14273;BME280;7220;49.450;11.052;2023-02-22T08:29:39;97991.50;;;6.65;100.00
14273;BME280;7220;49.450;11.052;2023-02-22T08:33:39;97994.69;;;6.73;100.00
14273;BME280;7220;49.450;11.052;2023-02-22T08:37:42;97986.88;;;6.92;100.00
14273;BME280;7220;49.450;11.052;2023-02-22T08:41:43;97995.91;;;7.07;100.00
14273;BME280;7220;49.450;11.052;2023-02-22T08:45:43;97987.19;;;7.26;100.00
14273;BME280;7220;49.450;11.052;2023-02-22T08:49:44;97987.56;;;7.37;100.00
14273;BME280;7220;49.450;11.052;2023-02-22T08:53:44;97979.91;;;7.52;100.00
14273;BME280;7220;49.450;11.052;2023-02-22T08:57:45;97985.25;;;7.69;100.00
14273;BME280;7220;49.450;11.052;2023-02-22T09:01:45;97984.34;;;7.89;100.00
14273;BME280;7220;49.450;11.052;2023-02-22T09:05:45;97976.50;;;8.07;100.00
14273;BME280;7220;49.450;11.052;2023-02-22T09:09:46;97975.31;;;8.32;100.00
14273;BME280;7220;49.450;11.052;2023-02-22T09:13:46;97977.03;;;8.52;100.00
14273;BME280;7220;49.450;11.052;2023-02-22T09:17:47;97984.28;;;8.48;100.00
14273;BME280;7220;49.450;11.052;2023-02-22T09:21:54;97973.75;;;8.47;100.00
14273;BME280;7220;49.450;11.052;2023-02-22T09:25:55;97981.66;;;8.66;100.00
14273;BME280;7220;49.450;11.052;2023-02-22T09:29:56;97975.13;;;8.91;100.00
14273;BME280;7220;49.450;11.052;2023-02-22T09:33:57;97974.97;;;8.94;100.00
14273;BME280;7220;49.450;11.052;2023-02-22T09:37:58;97966.50;;;9.05;100.00
14273;BME280;7220;49.450;11.052;2023-02-22T09:42:10;97962.25;;;9.18;100.00
14273;BME280;7220;49.450;11.052;2023-02-22T09:46:20;97966.16;;;9.28;100.00
14273;BME280;7220;49.450;11.052;2023-02-22T09:50:28;97968.59;;;9.49;100.00
14273;BME280;7220;49.450;11.052;2023-02-22T09:54:35;97957.66;;;9.55;100.00
14273;BME280;7220;49.450;11.052;2023-02-22T09:58:39;97955.94;;;9.54;100.00
14273;BME280;7220;49.450;11.052;2023-02-22T10:07:20;97951.81;;;9.82;100.00
14273;BME280;7220;49.450;11.052;2023-02-22T10:20:06;97948.28;;;10.62;99.26
14273;BME280;7220;49.450;11.052;2023-02-22T10:24:36;97934.50;;;10.85;97.07
14273;BME280;7220;49.450;11.052;2023-02-22T10:28:55;97939.22;;;11.11;95.29
14273;BME280;7220;49.450;11.052;2023-02-22T10:33:20;97932.13;;;11.26;94.16
14273;BME280;7220;49.450;11.052;2023-02-22T10:37:29;97930.41;;;11.25;94.87
14273;BME280;7220;49.450;11.052;2023-02-22T10:41:37;97927.75;;;11.39;94.62
14273;BME280;7220;49.450;11.052;2023-02-22T10:45:39;97919.50;;;11.44;93.64
14273;BME280;7220;49.450;11.052;2023-02-22T10:49:47;97913.50;;;11.55;92.54
14273;BME280;7220;49.450;11.052;2023-02-22T10:53:57;97924.25;;;11.67;91.91
14273;BME280;7220;49.450;11.052;2023-02-22T10:58:06;97918.81;;;11.83;91.33
14273;BME280;7220;49.450;11.052;2023-02-22T11:02:30;97912.31;;;12.02;89.82
14273;BME280;7220;49.450;11.052;2023-02-22T11:06:32;97900.59;;;12.19;88.62
14273;BME280;7220;49.450;11.052;2023-02-22T11:10:33;97903.88;;;12.37;88.14
14273;BME280;7220;49.450;11.052;2023-02-22T11:14:37;97894.19;;;12.49;86.99
14273;BME280;7220;49.450;11.052;2023-02-22T11:18:38;97895.84;;;12.65;85.73
14273;BME280;7220;49.450;11.052;2023-02-22T11:22:40;97895.41;;;12.71;86.08
14273;BME280;7220;49.450;11.052;2023-02-22T11:26:49;97876.69;;;12.85;85.17
14273;BME280;7220;49.450;11.052;2023-02-22T11:30:51;97876.06;;;13.07;83.94
14273;BME280;7220;49.450;11.052;2023-02-22T11:35:16;97875.41;;;13.17;82.73
14273;BME280;7220;49.450;11.052;2023-02-22T11:39:24;97868.38;;;13.29;82.03
14273;BME280;7220;49.450;11.052;2023-02-22T11:43:25;97854.84;;;13.45;81.42
14273;BME280;7220;49.450;11.052;2023-02-22T11:47:26;97844.31;;;13.80;79.17
14273;BME280;7220;49.450;11.052;2023-02-22T11:51:56;97847.03;;;15.23;71.69
14273;BME280;7220;49.450;11.052;2023-02-22T11:56:13;97827.41;;;16.02;70.55
14273;BME280;7220;49.450;11.052;2023-02-22T12:09:00;97818.06;;;17.85;62.69
14273;BME280;7220;49.450;11.052;2023-02-22T12:17:42;97803.09;;;18.90;59.13
14273;BME280;7220;49.450;11.052;2023-02-22T12:21:48;97794.91;;;18.92;58.15
14273;BME280;7220;49.450;11.052;2023-02-22T12:26:03;97798.00;;;18.87;57.29
14273;BME280;7220;49.450;11.052;2023-02-22T12:30:11;97785.31;;;19.27;56.68
14273;BME280;7220;49.450;11.052;2023-02-22T12:42:21;97775.28;;;20.57;52.38
14273;BME280;7220;49.450;11.052;2023-02-22T12:46:33;97761.47;;;20.78;51.21
14273;BME280;7220;49.450;11.052;2023-02-22T12:50:36;97760.25;;;20.55;50.95
14273;BME280;7220;49.450;11.052;2023-02-22T12:54:45;97765.28;;;20.94;50.24
14273;BME280;7220;49.450;11.052;2023-02-22T12:58:56;97754.13;;;21.32;49.47
14273;BME280;7220;49.450;11.052;2023-02-22T13:03:02;97758.72;;;21.66;48.56
14273;BME280;7220;49.450;11.052;2023-02-22T13:07:20;97753.69;;;21.79;48.00
14273;BME280;7220;49.450;11.052;2023-02-22T13:24:15;97730.97;;;23.37;43.72
14273;BME280;7220;49.450;11.052;2023-02-22T13:28:23;97732.03;;;23.11;43.69
14273;BME280;7220;49.450;11.052;2023-02-22T13:49:56;97726.69;;;22.29;44.36
14273;BME280;7220;49.450;11.052;2023-02-22T13:54:21;97711.34;;;22.62;43.55
14273;BME280;7220;49.450;11.052;2023-02-22T13:58:23;97721.44;;;22.85;43.34
14273;BME280;7220;49.450;11.052;2023-02-22T14:02:33;97716.13;;;23.08;42.14
14273;BME280;7220;49.450;11.052;2023-02-22T14:07:01;97712.94;;;23.53;40.97
14273;BME280;7220;49.450;11.052;2023-02-22T14:15:31;97706.94;;;23.89;40.69
14273;BME280;7220;49.450;11.052;2023-02-22T14:19:31;97697.72;;;23.43;40.56
14273;BME280;7220;49.450;11.052;2023-02-22T14:23:38;97706.59;;;22.40;42.31
14273;BME280;7220;49.450;11.052;2023-02-22T14:27:40;97701.81;;;21.41;44.15
14273;BME280;7220;49.450;11.052;2023-02-22T14:35:45;97702.59;;;20.20;45.57
14273;BME280;7220;49.450;11.052;2023-02-22T14:39:46;97708.56;;;19.59;46.30
14273;BME280;7220;49.450;11.052;2023-02-22T14:43:48;97705.97;;;19.39;47.10
14273;BME280;7220;49.450;11.052;2023-02-22T14:47:57;97700.72;;;19.20;47.70
14273;BME280;7220;49.450;11.052;2023-02-22T14:52:10;97702.66;;;18.42;50.00
14273;BME280;7220;49.450;11.052;2023-02-22T14:56:45;97712.00;;;18.28;50.67
14273;BME280;7220;49.450;11.052;2023-02-22T15:00:51;97713.84;;;18.08;51.51
14273;BME280;7220;49.450;11.052;2023-02-22T15:04:54;97702.06;;;17.90;52.18
14273;BME280;7220;49.450;11.052;2023-02-22T15:09:12;97704.91;;;17.78;53.31
14273;BME280;7220;49.450;11.052;2023-02-22T15:13:22;97709.94;;;17.52;54.52
14273;BME280;7220;49.450;11.052;2023-02-22T15:17:23;97704.25;;;17.35;55.23
14273;BME280;7220;49.450;11.052;2023-02-22T15:21:26;97700.31;;;17.30;55.66
14273;BME280;7220;49.450;11.052;2023-02-22T15:25:28;97705.09;;;16.95;57.40
14273;BME280;7220;49.450;11.052;2023-02-22T15:29:43;97698.44;;;16.90;57.12
14273;BME280;7220;49.450;11.052;2023-02-22T15:33:43;97689.91;;;16.84;57.93
14273;BME280;7220;49.450;11.052;2023-02-22T15:37:45;97696.25;;;16.52;59.17
14273;BME280;7220;49.450;11.052;2023-02-22T15:41:46;97700.41;;;16.35;60.05
14273;BME280;7220;49.450;11.052;2023-02-22T15:45:46;97702.81;;;16.17;61.47
14273;BME280;7220;49.450;11.052;2023-02-22T15:50:24;97693.25;;;16.03;61.49
14273;BME280;7220;49.450;11.052;2023-02-22T15:54:25;97685.63;;;15.87;62.77
14273;BME280;7220;49.450;11.052;2023-02-22T15:58:26;97689.31;;;15.75;63.83
14273;BME280;7220;49.450;11.052;2023-02-22T16:02:34;97685.97;;;15.61;64.57
14273;BME280;7220;49.450;11.052;2023-02-22T16:06:38;97680.03;;;15.46;64.84
14273;BME280;7220;49.450;11.052;2023-02-22T16:10:48;97682.88;;;15.34;65.28
14273;BME280;7220;49.450;11.052;2023-02-22T16:14:52;97685.09;;;15.28;66.36
14273;BME280;7220;49.450;11.052;2023-02-22T16:19:26;97687.41;;;15.22;66.05
14273;BME280;7220;49.450;11.052;2023-02-22T16:23:28;97699.72;;;15.13;66.92
14273;BME280;7220;49.450;11.052;2023-02-22T16:27:28;97698.09;;;15.10;67.08
14273;BME280;7220;49.450;11.052;2023-02-22T16:31:36;97691.94;;;14.87;68.32
14273;BME280;7220;49.450;11.052;2023-02-22T16:35:37;97693.63;;;14.77;69.12
14273;BME280;7220;49.450;11.052;2023-02-22T16:39:37;97696.66;;;14.72;69.11
14273;BME280;7220;49.450;11.052;2023-02-22T16:43:38;97687.53;;;14.63;69.65
14273;BME280;7220;49.450;11.052;2023-02-22T16:47:38;97695.03;;;14.47;70.36
14273;BME280;7220;49.450;11.052;2023-02-22T16:51:59;97692.13;;;14.39;70.70
14273;BME280;7220;49.450;11.052;2023-02-22T16:56:03;97694.66;;;14.40;70.78
14273;BME280;7220;49.450;11.052;2023-02-22T17:00:06;97693.91;;;14.27;71.63
14273;BME280;7220;49.450;11.052;2023-02-22T17:04:21;97696.66;;;14.14;71.69
14273;BME280;7220;49.450;11.052;2023-02-22T17:08:23;97699.38;;;14.25;71.14
14273;BME280;7220;49.450;11.052;2023-02-22T17:12:24;97700.19;;;14.14;71.95
14273;BME280;7220;49.450;11.052;2023-02-22T17:16:25;97711.00;;;14.13;71.53
14273;BME280;7220;49.450;11.052;2023-02-22T17:20:26;97703.97;;;14.23;71.51
14273;BME280;7220;49.450;11.052;2023-02-22T17:24:29;97702.88;;;14.26;71.72
14273;BME280;7220;49.450;11.052;2023-02-22T17:28:30;97698.59;;;14.00;72.81
14273;BME280;7220;49.450;11.052;2023-02-22T17:32:30;97713.03;;;13.98;72.98
14273;BME280;7220;49.450;11.052;2023-02-22T17:36:32;97714.06;;;13.84;73.46
14273;BME280;7220;49.450;11.052;2023-02-22T17:40:35;97723.53;;;13.88;73.39
14273;BME280;7220;49.450;11.052;2023-02-22T17:44:36;97720.78;;;13.90;73.09
14273;BME280;7220;49.450;11.052;2023-02-22T17:48:36;97715.75;;;13.85;73.71
14273;BME280;7220;49.450;11.052;2023-02-22T17:52:37;97715.56;;;13.75;74.02
14273;BME280;7220;49.450;11.052;2023-02-22T17:56:38;97720.00;;;13.63;74.37
14273;BME280;7220;49.450;11.052;2023-02-22T18:00:40;97715.69;;;13.73;73.85
14273;BME280;7220;49.450;11.052;2023-02-22T18:04:41;97716.56;;;13.50;74.42
14273;BME280;7220;49.450;11.052;2023-02-22T18:08:42;97723.59;;;13.51;74.56
14273;BME280;7220;49.450;11.052;2023-02-22T18:12:42;97718.72;;;13.45;74.80
14273;BME280;7220;49.450;11.052;2023-02-22T18:16:42;97709.09;;;13.42;75.06
14273;BME280;7220;49.450;11.052;2023-02-22T18:20:46;97709.97;;;13.30;74.93
14273;BME280;7220;49.450;11.052;2023-02-22T18:24:50;97721.91;;;13.37;74.80
14273;BME280;7220;49.450;11.052;2023-02-22T18:28:53;97718.47;;;13.35;74.37
14273;BME280;7220;49.450;11.052;2023-02-22T18:32:54;97732.09;;;13.19;74.44
14273;BME280;7220;49.450;11.052;2023-02-22T18:36:54;97734.25;;;13.14;75.13
14273;BME280;7220;49.450;11.052;2023-02-22T18:40:58;97736.47;;;13.20;75.09
14273;BME280;7220;49.450;11.052;2023-02-22T18:44:58;97727.53;;;13.08;75.40
14273;BME280;7220;49.450;11.052;2023-02-22T18:49:02;97730.59;;;13.15;74.59
14273;BME280;7220;49.450;11.052;2023-02-22T18:53:03;97737.09;;;13.23;74.47
14273;BME280;7220;49.450;11.052;2023-02-22T18:57:03;97728.41;;;12.96;75.79
14273;BME280;7220;49.450;11.052;2023-02-22T19:01:09;97723.78;;;13.10;75.09
14273;BME280;7220;49.450;11.052;2023-02-22T19:05:13;97721.41;;;12.82;75.79
14273;BME280;7220;49.450;11.052;2023-02-22T19:09:16;97718.72;;;12.82;76.30
14273;BME280;7220;49.450;11.052;2023-02-22T19:13:16;97714.75;;;13.00;75.19
14273;BME280;7220;49.450;11.052;2023-02-22T19:17:17;97714.69;;;12.63;76.88
14273;BME280;7220;49.450;11.052;2023-02-22T19:21:20;97731.44;;;12.65;77.31
14273;BME280;7220;49.450;11.052;2023-02-22T19:25:22;97737.16;;;12.59;77.39
14273;BME280;7220;49.450;11.052;2023-02-22T19:29:22;97739.84;;;12.59;77.13
14273;BME280;7220;49.450;11.052;2023-02-22T19:33:22;97738.03;;;12.46;77.39
14273;BME280;7220;49.450;11.052;2023-02-22T19:37:25;97743.34;;;12.46;76.95
14273;BME280;7220;49.450;11.052;2023-02-22T19:41:26;97732.50;;;12.50;77.63
14273;BME280;7220;49.450;11.052;2023-02-22T19:45:26;97744.84;;;12.51;76.83
14273;BME280;7220;49.450;11.052;2023-02-22T19:49:26;97738.13;;;12.58;77.00
14273;BME280;7220;49.450;11.052;2023-02-22T19:53:28;97735.47;;;12.58;76.79
14273;BME280;7220;49.450;11.052;2023-02-22T19:57:29;97754.84;;;12.21;78.57
14273;BME280;7220;49.450;11.052;2023-02-22T20:01:31;97751.19;;;12.22;78.25
14273;BME280;7220;49.450;11.052;2023-02-22T20:05:32;97750.81;;;12.28;77.49
14273;BME280;7220;49.450;11.052;2023-02-22T20:09:35;97738.66;;;12.37;76.38
14273;BME280;7220;49.450;11.052;2023-02-22T20:13:39;97747.56;;;12.10;78.37
14273;BME280;7220;49.450;11.052;2023-02-22T20:17:39;97745.72;;;11.98;78.66
14273;BME280;7220;49.450;11.052;2023-02-22T20:21:40;97738.59;;;12.11;78.17
14273;BME280;7220;49.450;11.052;2023-02-22T20:25:41;97750.13;;;11.84;79.36
14273;BME280;7220;49.450;11.052;2023-02-22T20:29:41;97751.63;;;11.89;79.85
14273;BME280;7220;49.450;11.052;2023-02-22T20:33:43;97748.00;;;11.90;80.24
14273;BME280;7220;49.450;11.052;2023-02-22T20:37:44;97752.34;;;12.05;79.09
14273;BME280;7220;49.450;11.052;2023-02-22T20:41:45;97759.84;;;11.86;80.45
14273;BME280;7220;49.450;11.052;2023-02-22T20:45:45;97752.38;;;11.91;79.83
14273;BME280;7220;49.450;11.052;2023-02-22T20:49:45;97751.84;;;11.86;80.73
14273;BME280;7220;49.450;11.052;2023-02-22T20:53:46;97754.69;;;11.82;81.07
14273;BME280;7220;49.450;11.052;2023-02-22T20:57:46;97757.19;;;11.71;80.62
14273;BME280;7220;49.450;11.052;2023-02-22T21:01:47;97756.41;;;11.83;80.87
14273;BME280;7220;49.450;11.052;2023-02-22T21:05:49;97759.72;;;11.87;80.68
14273;BME280;7220;49.450;11.052;2023-02-22T21:09:49;97758.25;;;11.68;82.10
14273;BME280;7220;49.450;11.052;2023-02-22T21:13:50;97745.47;;;11.61;82.23
14273;BME280;7220;49.450;11.052;2023-02-22T21:17:50;97746.97;;;11.65;81.30
14273;BME280;7220;49.450;11.052;2023-02-22T21:21:54;97759.13;;;11.69;81.38
14273;BME280;7220;49.450;11.052;2023-02-22T21:25:55;97749.97;;;11.73;81.52
14273;BME280;7220;49.450;11.052;2023-02-22T21:29:56;97752.88;;;11.56;82.27
14273;BME280;7220;49.450;11.052;2023-02-22T21:33:58;97748.13;;;11.61;82.67
14273;BME280;7220;49.450;11.052;2023-02-22T21:37:59;97759.66;;;11.47;82.49
14273;BME280;7220;49.450;11.052;2023-02-22T21:41:59;97753.47;;;11.46;82.81
14273;BME280;7220;49.450;11.052;2023-02-22T21:46:03;97754.03;;;11.51;83.26
14273;BME280;7220;49.450;11.052;2023-02-22T21:50:04;97757.38;;;11.55;82.72
14273;BME280;7220;49.450;11.052;2023-02-22T21:54:07;97762.75;;;11.68;82.38
14273;BME280;7220;49.450;11.052;2023-02-22T21:58:09;97770.09;;;11.50;82.68
14273;BME280;7220;49.450;11.052;2023-02-22T22:02:09;97767.75;;;11.45;82.70
14273;BME280;7220;49.450;11.052;2023-02-22T22:06:10;97765.16;;;11.44;83.55
14273;BME280;7220;49.450;11.052;2023-02-22T22:10:12;97775.06;;;11.27;83.84
14273;BME280;7220;49.450;11.052;2023-02-22T22:14:20;97766.81;;;11.32;84.24
14273;BME280;7220;49.450;11.052;2023-02-22T22:18:22;97768.13;;;11.39;83.15
14273;BME280;7220;49.450;11.052;2023-02-22T22:22:22;97759.03;;;11.29;84.23
14273;BME280;7220;49.450;11.052;2023-02-22T22:26:23;97767.03;;;11.29;84.26
14273;BME280;7220;49.450;11.052;2023-02-22T22:30:24;97769.13;;;11.09;84.44
14273;BME280;7220;49.450;11.052;2023-02-22T22:34:24;97764.00;;;11.06;85.05
14273;BME280;7220;49.450;11.052;2023-02-22T22:38:28;97770.56;;;11.15;84.18
14273;BME280;7220;49.450;11.052;2023-02-22T22:42:28;97765.31;;;10.99;85.42
14273;BME280;7220;49.450;11.052;2023-02-22T22:46:29;97757.53;;;11.10;85.01
14273;BME280;7220;49.450;11.052;2023-02-22T22:50:30;97765.31;;;10.99;85.67
14273;BME280;7220;49.450;11.052;2023-02-22T22:54:30;97770.84;;;10.96;85.96
14273;BME280;7220;49.450;11.052;2023-02-22T22:58:32;97772.47;;;10.84;87.43
14273;BME280;7220;49.450;11.052;2023-02-22T23:02:35;97762.22;;;10.92;87.06
14273;BME280;7220;49.450;11.052;2023-02-22T23:06:42;97763.53;;;10.85;87.80